Time;durP1;ratioP1;P1;durP2;ratioP2;P2;SDS_P1;SDS_P2;PMS_P1;PMS_P2;Temp;Humidity;BMP_temperature;BMP_pressure;BME280_temperature;BME280_humidity;BME280_pressure;Samples;Min_cycle;Max_cycle;Signal;HPM_P1;HPM_P2
2022/01/14 00:01:55;;;;;;;25.20;14.73;;;;;;;3.45;73.69;102363.06;5075188;28;20520;-83
2022/01/14 00:04:25;;;;;;;29.92;15.93;;;;;;;3.48;74.25;102353.50;5076599;28;20055;-84
2022/01/14 00:06:53;;;;;;;31.85;16.67;;;;;;;3.55;73.99;102349.66;5076657;28;20056;-84
2022/01/14 00:09:27;;;;;;;26.25;14.80;;;;;;;3.56;74.10;102354.09;5076600;28;20063;-84
2022/01/14 00:11:57;;;;;;;29.48;16.92;;;;;;;3.56;74.28;102347.75;5075619;28;20106;-84
2022/01/14 00:14:37;;;;;;;24.92;14.93;;;;;;;3.56;73.95;102350.50;5077687;28;20055;-84
2022/01/14 00:17:05;;;;;;;28.17;16.45;;;;;;;3.58;73.69;102345.63;5091909;28;20524;-84
2022/01/14 00:19:33;;;;;;;29.08;14.70;;;;;;;3.57;74.04;102341.16;5097070;28;20067;-84
2022/01/14 00:22:06;;;;;;;22.50;12.77;;;;;;;3.60;74.64;102349.81;5096878;28;20389;-84
2022/01/14 00:33:08;;;;;;;26.08;15.82;;;;;;;3.73;76.30;102332.34;5102254;28;20059;-84
2022/01/14 00:35:40;;;;;;;26.20;15.25;;;;;;;3.76;76.49;102322.78;5097763;28;20052;-83
2022/01/14 00:38:12;;;;;;;31.58;15.57;;;;;;;3.72;76.93;102330.69;5098732;28;20063;-84
2022/01/14 00:40:41;;;;;;;29.48;15.80;;;;;;;3.85;76.17;102315.97;5103331;28;20052;-84
2022/01/14 00:43:13;;;;;;;25.00;14.70;;;;;;;3.92;76.51;102316.72;5097661;28;20385;-84
2022/01/14 00:45:41;;;;;;;27.70;16.05;;;;;;;4.02;76.23;102321.75;5101267;28;20047;-84
2022/01/14 00:48:09;;;;;;;28.52;14.70;;;;;;;4.03;75.69;102320.66;5096963;28;20059;-83
2022/01/14 00:50:40;;;;;;;26.15;14.82;;;;;;;4.02;75.68;102322.59;5097539;28;20059;-84
2022/01/14 00:53:10;;;;;;;29.77;16.15;;;;;;;4.11;75.47;102325.06;5096825;28;20051;-84
2022/01/14 00:55:48;;;;;;;27.70;15.15;;;;;;;4.15;75.38;102320.78;5096788;28;20408;-84
2022/01/14 01:01:02;;;;;;;29.58;15.13;;;;;;;4.11;75.16;102314.03;5085866;28;20060;-83
2022/01/14 01:03:29;;;;;;;31.48;15.60;;;;;;;4.13;75.16;102307.22;5080341;28;20412;-84
2022/01/14 01:05:57;;;;;;;25.60;13.88;;;;;;;4.12;75.12;102310.22;5079731;28;20056;-84
2022/01/14 01:08:27;;;;;;;26.65;15.27;;;;;;;4.13;74.95;102307.22;5081376;28;20055;-83
2022/01/14 01:10:55;;;;;;;32.80;15.60;;;;;;;4.13;75.39;102303.63;5080740;28;20067;-84
2022/01/14 01:13:27;;;;;;;24.58;13.95;;;;;;;4.18;74.89;102301.03;5080735;28;20056;-84
2022/01/14 01:15:56;;;;;;;24.67;13.57;;;;;;;4.20;74.78;102304.41;5080562;28;20045;-84
2022/01/14 01:18:24;;;;;;;24.23;15.23;;;;;;;4.22;74.95;102305.00;5083689;28;20051;-84
2022/01/14 01:20:55;;;;;;;26.73;14.43;;;;;;;4.25;75.02;102308.19;5099153;28;20048;-84
2022/01/14 01:23:23;;;;;;;24.25;13.88;;;;;;;4.28;74.71;102298.59;5099199;28;20512;-84
2022/01/14 01:25:57;;;;;;;23.75;14.70;;;;;;;4.30;75.00;102304.72;5069447;28;20060;-84
2022/01/14 01:28:27;;;;;;;23.77;14.40;;;;;;;4.26;74.77;102306.25;5076987;28;20056;-83
2022/01/14 01:31:34;;;;;;;24.42;14.90;;;;;;;4.31;75.05;102311.13;5079104;28;20060;-84
2022/01/14 01:33:52;;;;;;;21.60;13.20;;;;;;;4.28;75.10;102306.88;5086787;28;20052;-83
2022/01/14 01:36:19;;;;;;;23.50;13.98;;;;;;;4.24;75.26;102300.97;5099208;28;20048;-84
2022/01/14 01:38:50;;;;;;;23.60;14.68;;;;;;;4.24;75.13;102308.41;5098662;28;20056;-84
2022/01/14 01:41:18;;;;;;;22.63;13.68;;;;;;;4.30;74.70;102304.72;5099183;28;20052;-84
2022/01/14 01:43:51;;;;;;;22.65;13.70;;;;;;;4.33;74.80;102308.97;5099275;28;20362;-84
2022/01/14 01:46:20;;;;;;;22.38;15.00;;;;;;;4.33;74.20;102307.06;5099242;28;20405;-83
2022/01/14 01:48:48;;;;;;;21.65;14.05;;;;;;;4.32;74.48;102321.91;5085750;28;20055;-84
2022/01/14 01:51:16;;;;;;;27.52;15.30;;;;;;;4.36;74.21;102308.50;5077690;28;20053;-84
2022/01/14 01:53:43;;;;;;;25.63;14.82;;;;;;;4.30;74.51;102323.19;5078130;28;20059;-83
2022/01/14 01:56:11;;;;;;;20.00;13.25;;;;;;;4.25;73.89;102327.47;5085993;28;20056;-84
2022/01/14 01:58:38;;;;;;;24.88;14.30;;;;;;;4.16;74.55;102325.22;5097443;28;20055;-84
2022/01/14 02:01:08;;;;;;;21.52;13.27;;;;;;;4.17;74.15;102337.97;5097519;28;20052;-84
2022/01/14 02:03:37;;;;;;;21.98;13.27;;;;;;;4.09;73.72;102332.72;5084893;28;20053;-83
2022/01/14 02:06:05;;;;;;;20.98;12.15;;;;;;;4.10;73.37;102328.91;5076722;28;20057;-82
2022/01/14 02:08:33;;;;;;;21.13;12.75;;;;;;;4.01;73.21;102340.22;5077138;28;20056;-83
2022/01/14 02:11:00;;;;;;;22.67;13.32;;;;;;;3.89;72.55;102342.00;5077148;28;20445;-83
2022/01/14 02:13:30;;;;;;;20.58;12.68;;;;;;;3.76;73.02;102342.94;5076078;28;20053;-84
2022/01/14 02:16:18;;;;;;;;;;;;;;;3.70;73.48;102338.31;5077556;28;20063;-84
2022/01/14 02:19:11;;;;;;;18.30;11.45;;;;;;;3.70;72.97;102341.09;5077030;28;19928;-83
2022/01/14 02:24:55;;;;;;;20.05;11.75;;;;;;;3.59;72.06;102334.38;5082818;28;20378;-84
2022/01/14 02:27:23;;;;;;;19.98;11.93;;;;;;;3.47;72.14;102333.38;5087073;28;20056;-83
2022/01/14 02:29:50;;;;;;;19.17;11.40;;;;;;;3.40;72.58;102332.56;5097463;28;20055;-85
2022/01/14 02:32:18;;;;;;;18.48;11.60;;;;;;;3.38;72.23;102335.56;5082101;28;20060;-83
2022/01/14 02:34:45;;;;;;;18.33;11.65;;;;;;;3.27;72.37;102329.91;5093608;28;20052;-83
2022/01/14 02:37:19;;;;;;;19.88;11.13;;;;;;;3.16;72.35;102331.44;5076179;28;20044;-83
2022/01/14 02:39:48;;;;;;;19.80;11.93;;;;;;;3.07;72.32;102317.06;5076153;28;20057;-82
2022/01/14 02:42:15;;;;;;;18.83;11.80;;;;;;;2.94;72.96;102312.47;5075144;28;20060;-83
2022/01/14 02:44:48;;;;;;;22.55;12.73;;;;;;;2.89;72.39;102301.25;5055364;28;20045;-84
2022/01/14 02:47:17;;;;;;;24.65;12.55;;;;;;;2.89;72.46;102308.69;5015372;28;1376611;-83
2022/01/14 02:49:45;;;;;;;22.83;12.85;;;;;;;2.84;72.74;102301.91;5077447;28;20413;-83
2022/01/14 02:52:14;;;;;;;18.60;11.50;;;;;;;2.81;72.87;102296.88;5077243;28;20071;-83
2022/01/14 02:55:02;;;;;;;25.23;13.43;;;;;;;2.78;72.98;102296.44;5077326;28;20045;-83
2022/01/14 02:57:32;;;;;;;22.30;12.63;;;;;;;2.69;73.21;102297.72;5081063;28;20482;-83
2022/01/14 03:00:01;;;;;;;21.55;12.23;;;;;;;2.62;72.75;102289.50;5097680;28;20063;-83
2022/01/14 03:02:30;;;;;;;24.08;12.30;;;;;;;2.62;73.53;102287.63;5097403;28;20055;-83
2022/01/14 03:05:01;;;;;;;24.23;13.07;;;;;;;2.57;73.42;102290.16;5097292;28;20472;-83
2022/01/14 03:07:31;;;;;;;23.20;12.32;;;;;;;2.56;73.51;102282.09;5097668;28;20512;-83
2022/01/14 03:09:58;;;;;;;22.48;12.32;;;;;;;2.54;74.08;102279.59;5097812;28;20048;-82
2022/01/14 03:12:26;;;;;;;23.02;13.38;;;;;;;2.51;74.21;102273.69;5098208;28;20048;-83
2022/01/14 03:14:54;;;;;;;20.27;12.20;;;;;;;2.55;74.01;102264.78;5097353;28;20072;-83
2022/01/14 03:17:21;;;;;;;20.23;12.63;;;;;;;2.56;74.04;102269.22;5097356;28;20063;-82
2022/01/14 03:19:49;;;;;;;23.67;14.48;;;;;;;2.58;74.64;102263.47;5097036;28;20055;-83
2022/01/14 03:22:24;;;;;;;20.65;12.38;;;;;;;2.59;74.57;102251.44;5097407;28;20060;-83
2022/01/14 03:27:39;;;;;;;22.48;14.38;;;;;;;2.54;74.44;102257.59;5097559;28;20515;-83
2022/01/14 03:30:07;;;;;;;19.33;12.18;;;;;;;2.52;74.46;102250.59;5095550;28;20052;-82
2022/01/14 03:32:35;;;;;;;21.90;12.98;;;;;;;2.51;74.33;102251.66;5096971;28;20390;-84
2022/01/14 03:35:03;;;;;;;22.08;13.13;;;;;;;2.52;73.89;102247.84;5096418;28;20067;-83
2022/01/14 03:37:31;;;;;;;26.77;13.32;;;;;;;2.48;74.55;102247.47;5096657;28;20059;-83
2022/01/14 03:40:04;;;;;;;20.73;13.50;;;;;;;2.48;74.04;102238.34;5097303;28;20417;-83
2022/01/14 03:42:31;;;;;;;24.25;12.98;;;;;;;2.46;73.91;102234.97;5097372;28;20077;-83
2022/01/14 03:44:59;;;;;;;22.35;13.23;;;;;;;2.46;74.38;102229.47;5099701;28;20048;-84
2022/01/14 03:47:26;;;;;;;26.58;14.43;;;;;;;2.45;73.75;102228.63;5099433;28;20078;-82
2022/01/14 03:49:54;;;;;;;23.63;13.32;;;;;;;2.42;73.60;102231.81;5096679;28;20417;-84
2022/01/14 03:52:22;;;;;;;22.45;13.85;;;;;;;2.39;74.12;102227.59;5097396;28;20044;-83
2022/01/14 03:54:52;;;;;;;24.95;13.65;;;;;;;2.34;74.14;102224.63;5098010;28;20052;-83
2022/01/14 03:57:20;;;;;;;23.23;12.00;;;;;;;2.34;74.29;102227.38;5097092;28;20052;-83
2022/01/14 03:59:48;;;;;;;24.08;13.65;;;;;;;2.31;74.50;102225.09;5095171;28;20067;-85
2022/01/14 04:02:15;;;;;;;21.73;12.55;;;;;;;2.27;74.47;102223.81;5076003;28;20500;-83
2022/01/14 04:04:43;;;;;;;22.40;13.60;;;;;;;2.26;73.95;102227.63;5076888;28;20063;-83
2022/01/14 04:07:10;;;;;;;23.48;12.95;;;;;;;2.24;74.23;102224.25;5075893;28;20071;-83
2022/01/14 04:09:37;;;;;;;25.02;14.93;;;;;;;2.22;74.02;102221.69;5076809;28;20067;-83
2022/01/14 04:12:08;;;;;;;25.20;14.93;;;;;;;2.27;74.37;102228.47;5076392;28;20055;-83
2022/01/14 04:17:22;;;;;;;24.33;14.30;;;;;;;2.26;74.13;102232.28;5076836;28;20075;-83
2022/01/14 04:19:49;;;;;;;20.00;12.68;;;;;;;2.26;74.35;102241.38;5076962;28;20382;-82
2022/01/14 04:22:17;;;;;;;21.33;13.70;;;;;;;2.20;74.30;102247.72;5076458;28;20067;-83
2022/01/14 04:24:44;;;;;;;23.63;13.57;;;;;;;2.19;74.00;102246.06;5087683;28;20151;-84
2022/01/14 04:27:12;;;;;;;22.10;12.95;;;;;;;2.20;73.97;102244.97;5096124;28;20052;-84
2022/01/14 04:29:40;;;;;;;23.90;15.02;;;;;;;2.20;74.61;102240.31;5096120;28;20059;-83
2022/01/14 04:32:08;;;;;;;22.98;14.80;;;;;;;2.17;74.69;102245.41;5096238;28;20063;-83
2022/01/14 04:34:35;;;;;;;22.70;13.60;;;;;;;2.14;74.03;102248.56;5095961;28;20048;-84
2022/01/14 04:37:03;;;;;;;22.60;13.38;;;;;;;2.12;73.78;102247.94;5095811;28;20072;-84
2022/01/14 04:39:30;;;;;;;21.00;13.25;;;;;;;2.03;73.64;102245.41;5092494;28;20089;-84
2022/01/14 04:41:58;;;;;;;22.38;12.95;;;;;;;2.01;73.57;102243.94;5095148;28;20083;-83
2022/01/14 04:44:26;;;;;;;26.38;13.93;;;;;;;1.92;74.12;102237.84;5095485;28;20063;-84
2022/01/14 04:47:14;;;;;;;21.05;13.40;;;;;;;1.89;73.73;102235.53;5095410;28;20409;-84
2022/01/14 04:49:44;;;;;;;22.92;13.38;;;;;;;1.85;73.97;102237.00;5095421;28;20052;-84
2022/01/14 04:52:12;;;;;;;20.55;13.13;;;;;;;1.87;74.60;102240.41;5095965;28;20059;-84
2022/01/14 04:54:39;;;;;;;20.17;12.65;;;;;;;1.85;73.95;102239.75;5095748;28;20055;-84
2022/01/14 04:57:06;;;;;;;23.00;13.25;;;;;;;1.83;74.19;102233.63;5096132;28;20055;-83
2022/01/14 04:59:34;;;;;;;20.98;12.57;;;;;;;1.82;74.49;102238.25;5095971;28;20052;-85
2022/01/14 05:02:03;;;;;;;22.48;12.45;;;;;;;1.80;74.97;102236.78;5096362;28;20134;-84
2022/01/14 05:04:30;;;;;;;21.08;13.32;;;;;;;1.78;74.47;102231.50;5095864;28;20056;-84
2022/01/14 05:07:02;;;;;;;23.13;13.30;;;;;;;1.77;74.70;102228.97;5095636;28;20056;-84
2022/01/14 05:09:35;;;;;;;24.35;14.23;;;;;;;1.77;74.74;102229.81;5096160;28;20051;-84
2022/01/14 05:12:07;;;;;;;21.35;13.65;;;;;;;1.78;75.15;102214.19;5079522;28;20055;-84
2022/01/14 05:14:35;;;;;;;26.95;14.13;;;;;;;1.74;75.51;102218.41;5077267;28;20409;-84
2022/01/14 05:17:05;;;;;;;23.98;14.55;;;;;;;1.77;75.95;102218.84;5075789;28;20059;-84
2022/01/14 05:19:32;;;;;;;24.88;14.35;;;;;;;1.73;76.21;102222.22;5076278;28;20052;-84
2022/01/14 05:22:00;;;;;;;25.92;14.52;;;;;;;1.73;75.93;102224.97;5075223;28;20052;-84
2022/01/14 05:24:27;;;;;;;24.50;13.70;;;;;;;1.79;75.71;102226.88;5077172;28;20052;-84
2022/01/14 05:26:54;;;;;;;25.35;13.65;;;;;;;1.84;75.75;102218.81;5076239;28;20064;-85
2022/01/14 05:29:22;;;;;;;22.75;13.18;;;;;;;1.80;75.85;102223.06;5075977;28;20060;-85
2022/01/14 05:31:51;;;;;;;26.33;14.13;;;;;;;1.62;76.09;102221.81;5075492;28;20489;-84
2022/01/14 05:34:20;;;;;;;24.55;13.35;;;;;;;1.71;75.40;102227.09;5074814;28;20502;-84
2022/01/14 05:36:47;;;;;;;24.95;13.75;;;;;;;1.70;75.31;102226.25;5075381;28;20063;-84
2022/01/14 05:39:15;;;;;;;24.60;14.38;;;;;;;1.68;76.02;102233.84;5075696;28;20053;-84
2022/01/14 05:41:42;;;;;;;24.48;13.77;;;;;;;1.68;75.49;102231.09;5075938;28;20067;-84
2022/01/14 05:44:12;;;;;;;22.02;13.23;;;;;;;1.75;75.40;102225.59;5076501;28;20053;-82
2022/01/14 05:46:39;;;;;;;22.65;13.48;;;;;;;1.77;75.28;102229.81;5076412;28;20409;-82
2022/01/14 05:49:10;;;;;;;23.98;14.55;;;;;;;1.80;74.72;102239.53;5081072;28;20049;-84
2022/01/14 05:51:38;;;;;;;;;;;;;;;1.59;75.47;102235.09;5080198;28;20049;-84
2022/01/14 05:54:05;;;;;;;26.25;14.10;;;;;;;1.60;75.59;102232.16;5078763;28;19927;-84
2022/01/14 05:56:35;;;;;;;22.77;13.60;;;;;;;1.68;74.54;102235.72;5080076;28;20056;-84
2022/01/14 05:59:03;;;;;;;;;;;;;;;1.60;74.45;102242.31;5079617;28;20052;-84
2022/01/14 06:01:31;;;;;;;22.15;12.27;;;;;;;1.60;74.42;102234.91;5078137;28;20257;-84
2022/01/14 06:04:00;;;;;;;25.08;14.27;;;;;;;1.62;73.87;102232.78;5079394;28;20600;-85
2022/01/14 06:06:28;;;;;;;23.08;13.57;;;;;;;1.66;73.97;102235.97;5079951;28;20056;-84
2022/01/14 06:08:57;;;;;;;22.42;13.68;;;;;;;1.67;73.56;102228.56;5079081;28;20063;-83
2022/01/14 06:11:25;;;;;;;22.77;13.40;;;;;;;1.60;74.36;102228.56;5079398;28;20071;-84
2022/01/14 06:13:53;;;;;;;21.50;12.70;;;;;;;1.56;74.53;102216.31;5078687;28;20056;-84
2022/01/14 06:16:20;;;;;;;22.38;13.10;;;;;;;1.57;74.19;102215.25;5077169;28;20049;-84
2022/01/14 06:18:48;;;;;;;28.65;14.10;;;;;;;1.53;74.03;102212.06;5078364;28;20385;-84
2022/01/14 06:21:16;;;;;;;19.33;12.60;;;;;;;1.50;74.34;102211.66;5079789;28;20052;-84
2022/01/14 06:23:44;;;;;;;18.73;12.73;;;;;;;1.50;74.36;102206.19;5079698;28;20052;-85
2022/01/14 06:26:13;;;;;;;24.77;14.00;;;;;;;1.42;74.43;102213.53;5078140;28;20502;-85
2022/01/14 06:28:42;;;;;;;20.98;12.57;;;;;;;1.45;74.60;102209.56;5077974;28;20071;-84
2022/01/14 06:31:09;;;;;;;19.65;13.32;;;;;;;1.46;74.31;102205.75;5078507;28;20055;-84
2022/01/14 06:33:37;;;;;;;24.98;13.57;;;;;;;1.49;74.43;102198.97;5079756;28;20052;-84
2022/01/14 06:36:05;;;;;;;21.60;12.27;;;;;;;1.47;74.24;102199.22;5078942;28;20052;-84
2022/01/14 06:38:32;;;;;;;22.95;13.65;;;;;;;1.47;74.21;102196.47;5078013;28;20055;-85
2022/01/14 06:41:01;;;;;;;23.15;13.45;;;;;;;1.50;74.21;102196.03;5079393;28;20065;-83
2022/01/14 06:43:30;;;;;;;19.45;11.95;;;;;;;1.38;74.26;102189.47;5079186;28;20056;-85
2022/01/14 06:45:58;;;;;;;21.95;13.73;;;;;;;1.35;74.24;102189.91;5078556;28;20051;-84
2022/01/14 06:48:25;;;;;;;18.70;12.57;;;;;;;1.37;73.92;102190.53;5078378;28;20346;-84
2022/01/14 06:50:53;;;;;;;22.45;14.40;;;;;;;1.39;74.33;102189.28;5079171;28;20056;-84
2022/01/14 06:53:20;;;;;;;21.25;12.98;;;;;;;1.35;73.89;102187.16;5079978;28;20378;-84
2022/01/14 06:55:47;;;;;;;17.08;11.50;;;;;;;1.40;73.36;102187.38;5079073;28;20055;-84
2022/01/14 06:58:15;;;;;;;20.58;12.15;;;;;;;1.38;73.72;102183.97;5077072;28;20378;-84
2022/01/14 07:00:43;;;;;;;21.40;12.13;;;;;;;1.38;73.38;102189.47;5078236;28;20052;-84
2022/01/14 07:03:11;;;;;;;23.70;14.40;;;;;;;1.33;74.15;102190.13;5077130;28;20048;-84
2022/01/14 07:05:38;;;;;;;22.05;13.32;;;;;;;1.28;74.10;102186.28;5078221;28;20052;-83
2022/01/14 07:08:08;;;;;;;21.63;12.68;;;;;;;1.32;73.82;102184.81;5081851;28;20052;-84
2022/01/14 07:10:37;;;;;;;;;;;;;;;1.27;73.43;102179.13;5080153;28;20053;-83
2022/01/14 07:13:04;;;;;;;22.60;13.20;;;;;;;1.25;74.08;102181.25;5079688;28;19920;-85
2022/01/14 07:15:32;;;;;;;22.25;12.57;;;;;;;1.32;73.80;102180.16;5080413;28;20048;-84
2022/01/14 07:18:01;;;;;;;18.58;12.27;;;;;;;1.36;74.11;102175.13;5079885;28;20180;-83
2022/01/14 07:20:28;;;;;;;22.75;14.32;;;;;;;1.28;74.00;102178.94;5079617;28;20056;-85
2022/01/14 07:22:56;;;;;;;26.83;14.73;;;;;;;1.36;73.89;102178.69;5078162;28;20331;-84
2022/01/14 07:25:23;;;;;;;21.00;13.15;;;;;;;1.36;73.77;102167.72;5078971;28;20414;-85
2022/01/14 07:27:51;;;;;;;24.67;14.77;;;;;;;1.37;74.34;102174.06;5079392;28;20049;-84
2022/01/14 07:30:18;;;;;;;21.20;12.18;;;;;;;1.39;74.33;102170.06;5079051;28;20040;-84
2022/01/14 07:32:46;;;;;;;28.27;14.27;;;;;;;1.40;73.75;102162.66;5078988;28;20052;-83
2022/01/14 07:35:14;;;;;;;26.33;13.82;;;;;;;1.38;73.63;102162.03;5078338;28;20497;-84
2022/01/14 07:37:42;;;;;;;20.08;13.38;;;;;;;1.39;73.95;102166.47;5078638;28;20067;-83
2022/01/14 07:40:10;;;;;;;22.30;13.35;;;;;;;1.41;73.71;102167.09;5079299;28;20037;-82
2022/01/14 07:42:38;;;;;;;20.55;12.85;;;;;;;1.44;73.82;102171.31;5080426;28;20052;-84
2022/01/14 07:45:07;;;;;;;21.13;13.68;;;;;;;1.46;73.77;102167.31;5078867;28;20052;-84
2022/01/14 07:47:35;;;;;;;23.00;13.70;;;;;;;1.45;73.92;102173.88;5078311;28;20055;-84
2022/01/14 07:50:02;;;;;;;24.27;15.48;;;;;;;1.53;73.88;102178.28;5075649;28;20411;-84
2022/01/14 07:52:31;;;;;;;22.50;13.68;;;;;;;1.61;74.32;102170.66;5079208;28;20055;-85
2022/01/14 07:54:58;;;;;;;21.40;12.65;;;;;;;1.73;73.37;102168.13;5077642;28;20059;-86
2022/01/14 07:57:26;;;;;;;20.30;11.70;;;;;;;1.79;72.87;102166.44;5074312;28;20490;-85
2022/01/14 07:59:55;;;;;;;21.88;12.63;;;;;;;1.88;72.44;102165.13;5075815;28;20041;-84
2022/01/14 08:02:25;;;;;;;21.15;11.80;;;;;;;1.94;72.49;102163.44;5075728;28;20053;-83
2022/01/14 08:04:54;;;;;;;23.23;14.07;;;;;;;1.92;73.00;102174.63;5075780;28;20055;-83
2022/01/14 08:07:23;;;;;;;19.88;12.68;;;;;;;1.95;72.93;102171.47;5075205;28;20048;-84
2022/01/14 08:09:52;;;;;;;22.98;13.75;;;;;;;2.14;72.24;102171.63;5079251;28;20056;-85
2022/01/14 08:12:20;;;;;;;18.90;12.45;;;;;;;2.52;71.55;102165.31;5075608;28;20052;-85
2022/01/14 08:14:47;;;;;;;24.92;13.52;;;;;;;3.07;71.49;102162.91;5075384;28;20417;-86
2022/01/14 08:17:18;;;;;;;22.90;14.32;;;;;;;3.73;70.64;102172.50;5076061;28;20056;-86
2022/01/14 08:19:45;;;;;;;18.42;11.32;;;;;;;4.16;68.54;102170.78;5074474;28;20052;-86
2022/01/14 08:22:13;;;;;;;20.77;13.35;;;;;;;4.39;67.76;102176.47;5074953;28;20052;-85
2022/01/14 08:24:40;;;;;;;16.90;11.63;;;;;;;4.78;66.63;102163.22;5074656;28;20162;-86
2022/01/14 08:27:09;;;;;;;17.33;10.75;;;;;;;5.93;63.91;102172.19;5075736;28;20071;-86
2022/01/14 08:29:36;;;;;;;16.63;10.90;;;;;;;6.87;61.26;102162.84;5071003;28;20509;-86
2022/01/14 08:32:05;;;;;;;14.57;9.57;;;;;;;7.68;57.98;102163.38;5074903;28;20074;-85
2022/01/14 08:34:32;;;;;;;15.57;9.45;;;;;;;8.69;54.84;102150.34;5074125;28;20500;-85
2022/01/14 08:37:03;;;;;;;16.35;10.65;;;;;;;9.72;51.49;102152.97;5075208;28;20057;-84
2022/01/14 08:39:30;;;;;;;16.20;10.77;;;;;;;10.81;50.48;102152.41;5075723;28;20056;-83
2022/01/14 08:41:58;;;;;;;14.48;10.43;;;;;;;11.53;47.46;102160.88;5075360;28;20417;-85
2022/01/14 08:44:27;;;;;;;14.10;10.25;;;;;;;12.46;45.19;102156.78;5077664;28;20339;-88
2022/01/14 08:46:56;;;;;;;15.05;11.18;;;;;;;13.19;43.24;102149.66;5071431;28;20059;-88
2022/01/14 08:49:28;;;;;;;15.82;11.95;;;;;;;13.66;41.74;102153.78;5104673;28;20047;-86
2022/01/14 08:51:55;;;;;;;16.08;11.20;;;;;;;14.46;40.73;102154.31;5112068;28;20052;-85
2022/01/14 08:54:23;;;;;;;17.85;12.20;;;;;;;15.28;39.06;102170.84;5110131;28;20052;-85
2022/01/14 08:56:50;;;;;;;20.40;14.93;;;;;;;15.18;38.95;102182.22;5107921;28;20052;-87
2022/01/14 08:59:18;;;;;;;18.90;13.50;;;;;;;15.99;37.35;102179.25;5098502;28;20052;-88
2022/01/14 09:01:47;;;;;;;19.63;11.98;;;;;;;16.58;36.46;102173.84;5102927;28;20071;-87
2022/01/14 09:04:15;;;;;;;23.30;15.80;;;;;;;17.41;35.22;102179.31;5093895;28;20066;-87
2022/01/14 09:06:43;;;;;;;17.17;13.52;;;;;;;17.36;34.43;102185.06;5100875;28;20141;-86
2022/01/14 09:09:10;;;;;;;30.17;22.88;;;;;;;15.58;36.81;102203.25;5102212;28;20451;-86
2022/01/14 09:11:37;;;;;;;19.77;16.45;;;;;;;14.23;39.32;102223.25;5099867;28;20629;-87
2022/01/14 09:14:05;;;;;;;17.25;14.02;;;;;;;13.37;40.60;102223.72;5096719;28;20052;-88
2022/01/14 09:16:33;;;;;;;17.52;14.27;;;;;;;12.23;42.77;102244.03;5100838;28;20070;-85
2022/01/14 09:19:02;;;;;;;22.65;16.40;;;;;;;11.37;44.64;102254.88;5102875;28;20067;-87
2022/01/14 09:21:29;;;;;;;25.53;16.83;;;;;;;10.70;46.19;102256.63;5100635;28;20051;-85
2022/01/14 09:24:03;;;;;;;24.05;17.80;;;;;;;9.79;48.46;102274.34;5101167;28;20048;-85
2022/01/14 09:26:31;;;;;;;27.05;20.52;;;;;;;9.19;49.93;102279.84;5112479;28;20052;-86
2022/01/14 09:28:59;;;;;;;26.58;18.77;;;;;;;8.75;50.88;102277.09;5112643;28;20054;-86
2022/01/14 09:31:27;;;;;;;29.88;19.17;;;;;;;8.31;51.64;102302.00;5104397;28;20416;-87
2022/01/14 09:33:54;;;;;;;30.52;20.73;;;;;;;7.86;53.71;102309.31;5103527;28;20056;-87
2022/01/14 09:36:25;;;;;;;34.90;20.83;;;;;;;7.63;54.34;102304.75;5105801;28;20052;-88
2022/01/14 09:38:55;;;;;;;39.78;22.27;;;;;;;7.22;55.70;102311.44;5104506;28;20055;-86
2022/01/14 09:41:23;;;;;;;43.38;24.58;;;;;;;6.75;59.32;102304.13;5112699;28;20044;-86
2022/01/14 09:43:50;;;;;;;38.67;22.02;;;;;;;6.68;59.12;102308.94;5108827;28;20044;-83
2022/01/14 09:46:18;;;;;;;43.67;23.92;;;;;;;6.39;60.67;102306.06;5111117;28;20058;-84
2022/01/14 09:48:49;;;;;;;38.58;23.38;;;;;;;6.37;60.70;102310.19;5107795;28;20048;-85
2022/01/14 09:51:16;;;;;;;43.03;23.63;;;;;;;6.30;60.97;102318.59;5107293;28;20048;-87
2022/01/14 09:53:54;;;;;;;47.13;24.00;;;;;;;6.27;61.70;102313.53;5100250;28;20056;-86
2022/01/14 09:56:25;;;;;;;39.67;22.98;;;;;;;6.21;61.97;102317.25;5110707;28;20052;-87
2022/01/14 09:58:53;;;;;;;38.67;21.05;;;;;;;6.19;61.99;102298.13;5104878;28;20054;-87
2022/01/14 10:01:22;;;;;;;39.30;22.58;;;;;;;6.19;62.93;102291.75;5092844;28;20047;-87
2022/01/14 10:03:56;;;;;;;46.70;23.53;;;;;;;6.22;63.14;102294.88;5101146;28;20055;-85
2022/01/14 10:06:42;;;;;;;43.55;22.80;;;;;;;6.10;63.46;102299.56;5100863;28;20473;-85
2022/01/14 10:09:16;;;;;;;45.30;25.13;;;;;;;6.03;64.17;102291.41;5104815;28;20448;-89
2022/01/14 10:11:58;;;;;;;47.55;25.33;;;;;;;6.07;64.63;102294.53;5110099;28;20064;-87
2022/01/14 10:14:26;;;;;;;44.15;23.70;;;;;;;6.09;64.09;102290.44;5102941;28;20052;-88
2022/01/14 10:16:55;;;;;;;49.35;24.60;;;;;;;6.12;64.81;102279.97;5110744;28;20048;-85
2022/01/14 10:19:24;;;;;;;46.67;24.95;;;;;;;6.11;64.00;102290.22;5107284;28;20067;-86
2022/01/14 10:21:52;;;;;;;76.55;36.40;;;;;;;5.81;65.89;102280.00;5111361;28;20058;-85
2022/01/14 10:24:24;;;;;;;62.60;29.75;;;;;;;5.99;65.59;102295.72;5113715;28;20036;-85
2022/01/14 10:26:53;;;;;;;55.95;27.20;;;;;;;5.94;66.98;102303.00;5113486;28;20063;-85
2022/01/14 10:29:33;;;;;;;40.30;24.37;;;;;;;6.00;67.04;102302.91;5111135;28;20048;-85
2022/01/14 10:32:02;;;;;;;45.92;25.25;;;;;;;6.02;67.16;102297.16;5101864;28;20438;-85
2022/01/14 10:34:30;;;;;;;48.38;25.02;;;;;;;6.06;67.50;102292.84;5099282;28;20051;-85
2022/01/14 10:37:13;;;;;;;61.85;33.70;;;;;;;6.12;68.07;102279.97;5104566;28;20056;-84
2022/01/14 10:39:48;;;;;;;46.42;24.55;;;;;;;6.13;68.00;102290.78;5108346;28;20047;-86
2022/01/14 10:42:28;;;;;;;53.97;29.08;;;;;;;5.94;68.62;102281.72;5108623;28;20066;-85
2022/01/14 10:44:57;;;;;;;50.97;27.02;;;;;;;6.09;68.69;102279.38;5094517;28;20051;-79
2022/01/14 10:47:26;;;;;;;53.05;27.58;;;;;;;6.19;68.10;102264.91;5096348;28;20056;-85
2022/01/14 10:49:57;;;;;;;65.40;28.83;;;;;;;6.09;67.91;102264.72;5082006;28;20044;-86
2022/01/14 10:52:26;;;;;;;49.58;26.42;;;;;;;5.98;69.38;102274.66;5079205;28;20052;-85
2022/01/14 10:54:58;;;;;;;50.38;25.90;;;;;;;5.92;69.45;102266.44;5076245;28;20052;-85
2022/01/14 10:57:27;;;;;;;50.58;25.77;;;;;;;5.74;69.99;102259.09;5079716;28;20048;-86
2022/01/14 10:59:56;;;;;;;42.23;21.53;;;;;;;6.06;69.04;102254.94;5077492;28;20052;-85
2022/01/14 11:02:35;;;;;;;38.83;21.27;;;;;;;5.86;69.92;102248.91;5075683;28;20596;-85
2022/01/14 11:05:13;;;;;;;49.28;25.85;;;;;;;6.05;69.85;102244.97;5076787;28;20040;-83
2022/01/14 11:07:42;;;;;;;44.28;23.65;;;;;;;5.82;70.25;102256.00;5077868;28;20053;-83
2022/01/14 11:10:21;;;;;;;43.93;22.63;;;;;;;6.04;69.48;102247.97;5079711;28;20067;-84
2022/01/14 11:12:48;;;;;;;50.20;25.80;;;;;;;6.15;68.75;102232.44;5082355;28;20052;-82
2022/01/14 11:15:17;;;;;;;44.78;22.40;;;;;;;6.08;69.13;102222.34;5078352;28;20497;-83
2022/01/14 11:17:50;;;;;;;44.90;24.42;;;;;;;6.10;68.55;102231.25;5076549;28;20417;-84
2022/01/14 11:20:24;;;;;;;45.42;23.52;;;;;;;6.07;68.77;102228.97;5079988;28;20059;-85
2022/01/14 11:25:46;;;;;;;39.20;22.10;;;;;;;6.26;68.82;102231.63;5082003;28;20055;-85
2022/01/14 11:28:18;;;;;;;47.35;24.58;;;;;;;6.30;68.53;102224.53;5069857;28;20056;-84
2022/01/14 11:30:45;;;;;;;45.38;23.50;;;;;;;6.35;68.52;102232.91;5077565;28;20048;-84
2022/01/14 11:33:15;;;;;;;47.15;23.70;;;;;;;6.22;68.47;102230.41;5080979;28;20048;-84
2022/01/14 11:35:59;;;;;;;42.67;22.27;;;;;;;6.38;68.38;102221.34;5076700;28;20057;-81
2022/01/14 11:38:41;;;;;;;35.22;21.08;;;;;;;6.37;68.51;102225.22;5075947;28;20049;-82
2022/01/14 11:41:13;;;;;;;47.50;24.45;;;;;;;6.28;68.37;102224.75;5077959;28;20044;-83
2022/01/14 11:43:44;;;;;;;40.85;21.55;;;;;;;6.41;68.28;102226.41;5075444;28;20045;-82
2022/01/14 11:46:14;;;;;;;38.10;22.48;;;;;;;6.54;68.19;102227.22;5068976;28;20402;-83
2022/01/14 11:48:45;;;;;;;;;;;;;;;6.58;68.46;102220.13;5061165;28;20415;-82
2022/01/14 11:51:14;;;;;;;34.90;21.20;;;;;;;6.66;68.17;102228.88;5071637;28;20313;-82
2022/01/14 11:53:48;;;;;;;37.45;23.48;;;;;;;6.73;68.32;102228.75;5085383;28;20056;-83